sensor_id;sensor_type;location;lat;lon;timestamp;temperature;humidity
37412;DHT22;23278;52.110;6.050;2022-07-29T00:00:09;17.80;66.30
37412;DHT22;23278;52.110;6.050;2022-07-29T00:02:36;17.80;66.40
37412;DHT22;23278;52.110;6.050;2022-07-29T00:05:02;17.80;66.60
37412;DHT22;23278;52.110;6.050;2022-07-29T00:07:28;17.80;66.70
37412;DHT22;23278;52.110;6.050;2022-07-29T00:09:54;17.80;66.90
37412;DHT22;23278;52.110;6.050;2022-07-29T00:12:21;17.80;67.20
37412;DHT22;23278;52.110;6.050;2022-07-29T00:14:47;17.70;67.10
37412;DHT22;23278;52.110;6.050;2022-07-29T00:17:13;17.70;67.30
37412;DHT22;23278;52.110;6.050;2022-07-29T00:19:39;17.70;67.40
37412;DHT22;23278;52.110;6.050;2022-07-29T00:22:05;17.70;67.50
37412;DHT22;23278;52.110;6.050;2022-07-29T00:24:31;17.70;67.80
37412;DHT22;23278;52.110;6.050;2022-07-29T00:26:57;17.60;67.90
37412;DHT22;23278;52.110;6.050;2022-07-29T00:29:23;17.60;68.30
37412;DHT22;23278;52.110;6.050;2022-07-29T00:31:49;17.70;68.50
37412;DHT22;23278;52.110;6.050;2022-07-29T00:34:15;17.70;68.40
37412;DHT22;23278;52.110;6.050;2022-07-29T00:37:00;17.60;69.00
37412;DHT22;23278;52.110;6.050;2022-07-29T00:39:26;17.60;69.10
37412;DHT22;23278;52.110;6.050;2022-07-29T00:41:52;17.60;69.30
37412;DHT22;23278;52.110;6.050;2022-07-29T00:44:17;17.60;69.50
37412;DHT22;23278;52.110;6.050;2022-07-29T00:46:43;17.50;69.60
37412;DHT22;23278;52.110;6.050;2022-07-29T00:49:09;17.50;70.00
37412;DHT22;23278;52.110;6.050;2022-07-29T00:51:37;17.50;70.00
37412;DHT22;23278;52.110;6.050;2022-07-29T00:54:04;17.50;70.20
37412;DHT22;23278;52.110;6.050;2022-07-29T00:56:31;17.50;70.20
37412;DHT22;23278;52.110;6.050;2022-07-29T00:58:58;17.40;70.60
37412;DHT22;23278;52.110;6.050;2022-07-29T01:01:24;17.40;70.60
37412;DHT22;23278;52.110;6.050;2022-07-29T01:03:50;17.40;70.60
37412;DHT22;23278;52.110;6.050;2022-07-29T01:06:17;17.40;70.70
37412;DHT22;23278;52.110;6.050;2022-07-29T01:08:44;17.40;71.00
37412;DHT22;23278;52.110;6.050;2022-07-29T01:11:11;17.40;71.20
37412;DHT22;23278;52.110;6.050;2022-07-29T01:13:37;17.40;71.20
37412;DHT22;23278;52.110;6.050;2022-07-29T01:16:09;17.30;71.60
37412;DHT22;23278;52.110;6.050;2022-07-29T01:18:42;17.30;71.70
37412;DHT22;23278;52.110;6.050;2022-07-29T01:29:47;17.20;72.80
37412;DHT22;23278;52.110;6.050;2022-07-29T01:32:19;17.10;72.90
37412;DHT22;23278;52.110;6.050;2022-07-29T01:35:20;17.10;73.00
37412;DHT22;23278;52.110;6.050;2022-07-29T01:37:52;17.10;73.40
37412;DHT22;23278;52.110;6.050;2022-07-29T01:42:59;17.10;73.20
37412;DHT22;23278;52.110;6.050;2022-07-29T01:45:45;17.10;73.50
37412;DHT22;23278;52.110;6.050;2022-07-29T01:48:41;17.10;73.50
37412;DHT22;23278;52.110;6.050;2022-07-29T01:53:46;17.20;73.60
37412;DHT22;23278;52.110;6.050;2022-07-29T01:56:14;17.20;73.40
37412;DHT22;23278;52.110;6.050;2022-07-29T01:58:43;17.20;73.30
37412;DHT22;23278;52.110;6.050;2022-07-29T02:01:11;17.20;73.40
37412;DHT22;23278;52.110;6.050;2022-07-29T02:03:39;17.20;73.30
37412;DHT22;23278;52.110;6.050;2022-07-29T02:06:07;17.20;73.60
37412;DHT22;23278;52.110;6.050;2022-07-29T02:08:37;17.20;73.50
37412;DHT22;23278;52.110;6.050;2022-07-29T02:11:05;17.20;73.60
37412;DHT22;23278;52.110;6.050;2022-07-29T02:13:34;17.20;73.70
37412;DHT22;23278;52.110;6.050;2022-07-29T02:16:03;17.20;73.80
37412;DHT22;23278;52.110;6.050;2022-07-29T02:18:30;17.20;73.80
37412;DHT22;23278;52.110;6.050;2022-07-29T02:20:59;17.20;74.00
37412;DHT22;23278;52.110;6.050;2022-07-29T02:23:25;17.20;74.20
37412;DHT22;23278;52.110;6.050;2022-07-29T02:25:53;17.10;74.50
37412;DHT22;23278;52.110;6.050;2022-07-29T02:28:22;17.10;74.40
37412;DHT22;23278;52.110;6.050;2022-07-29T02:30:50;17.10;74.50
37412;DHT22;23278;52.110;6.050;2022-07-29T02:33:18;17.20;74.60
37412;DHT22;23278;52.110;6.050;2022-07-29T02:35:46;17.20;74.60
37412;DHT22;23278;52.110;6.050;2022-07-29T02:38:15;17.20;74.70
37412;DHT22;23278;52.110;6.050;2022-07-29T02:41:03;17.10;74.70
37412;DHT22;23278;52.110;6.050;2022-07-29T02:43:30;17.20;74.80
37412;DHT22;23278;52.110;6.050;2022-07-29T02:45:59;17.10;74.80
37412;DHT22;23278;52.110;6.050;2022-07-29T02:48:34;17.20;75.00
37412;DHT22;23278;52.110;6.050;2022-07-29T02:51:07;17.20;75.00
37412;DHT22;23278;52.110;6.050;2022-07-29T02:53:35;17.20;75.10
37412;DHT22;23278;52.110;6.050;2022-07-29T02:56:08;17.10;75.10
37412;DHT22;23278;52.110;6.050;2022-07-29T02:58:41;17.10;75.40
37412;DHT22;23278;52.110;6.050;2022-07-29T03:01:12;17.10;75.40
37412;DHT22;23278;52.110;6.050;2022-07-29T03:03:42;17.10;75.50
37412;DHT22;23278;52.110;6.050;2022-07-29T03:06:12;17.10;75.60
37412;DHT22;23278;52.110;6.050;2022-07-29T03:08:39;17.10;75.70
37412;DHT22;23278;52.110;6.050;2022-07-29T03:11:07;17.10;75.70
37412;DHT22;23278;52.110;6.050;2022-07-29T03:13:35;17.00;75.90
37412;DHT22;23278;52.110;6.050;2022-07-29T03:16:01;17.00;76.00
37412;DHT22;23278;52.110;6.050;2022-07-29T03:18:28;17.10;76.10
37412;DHT22;23278;52.110;6.050;2022-07-29T03:20:54;17.00;76.10
37412;DHT22;23278;52.110;6.050;2022-07-29T03:23:21;17.10;76.30
37412;DHT22;23278;52.110;6.050;2022-07-29T03:25:50;17.00;76.30
37412;DHT22;23278;52.110;6.050;2022-07-29T03:28:16;17.10;76.50
37412;DHT22;23278;52.110;6.050;2022-07-29T03:30:42;17.00;76.60
37412;DHT22;23278;52.110;6.050;2022-07-29T03:33:08;17.00;76.70
37412;DHT22;23278;52.110;6.050;2022-07-29T03:35:33;17.00;76.70
37412;DHT22;23278;52.110;6.050;2022-07-29T03:37:59;17.00;77.00
37412;DHT22;23278;52.110;6.050;2022-07-29T03:40:35;17.00;77.20
37412;DHT22;23278;52.110;6.050;2022-07-29T03:43:03;17.00;77.60
37412;DHT22;23278;52.110;6.050;2022-07-29T03:45:32;17.00;78.00
37412;DHT22;23278;52.110;6.050;2022-07-29T03:48:08;17.00;78.20
37412;DHT22;23278;52.110;6.050;2022-07-29T03:50:35;17.00;78.60
37412;DHT22;23278;52.110;6.050;2022-07-29T03:53:02;17.00;79.20
37412;DHT22;23278;52.110;6.050;2022-07-29T03:55:30;17.00;80.10
37412;DHT22;23278;52.110;6.050;2022-07-29T03:57:58;16.90;80.60
37412;DHT22;23278;52.110;6.050;2022-07-29T04:00:26;16.90;81.50
37412;DHT22;23278;52.110;6.050;2022-07-29T04:02:52;16.90;82.00
37412;DHT22;23278;52.110;6.050;2022-07-29T04:05:19;16.80;84.00
37412;DHT22;23278;52.110;6.050;2022-07-29T04:07:45;16.70;84.60
37412;DHT22;23278;52.110;6.050;2022-07-29T04:10:12;16.70;84.60
37412;DHT22;23278;52.110;6.050;2022-07-29T04:12:38;16.70;85.00
37412;DHT22;23278;52.110;6.050;2022-07-29T04:15:04;16.60;85.20
37412;DHT22;23278;52.110;6.050;2022-07-29T04:17:31;16.60;85.60
37412;DHT22;23278;52.110;6.050;2022-07-29T04:19:56;16.60;86.10
37412;DHT22;23278;52.110;6.050;2022-07-29T04:22:22;16.60;86.80
37412;DHT22;23278;52.110;6.050;2022-07-29T04:24:48;16.60;87.00
37412;DHT22;23278;52.110;6.050;2022-07-29T04:27:14;16.60;87.60
37412;DHT22;23278;52.110;6.050;2022-07-29T04:29:40;16.50;87.80
37412;DHT22;23278;52.110;6.050;2022-07-29T04:32:06;16.50;88.00
37412;DHT22;23278;52.110;6.050;2022-07-29T04:34:32;16.50;88.30
37412;DHT22;23278;52.110;6.050;2022-07-29T04:36:58;16.50;88.50
37412;DHT22;23278;52.110;6.050;2022-07-29T04:39:24;16.50;88.90
37412;DHT22;23278;52.110;6.050;2022-07-29T04:41:50;16.50;88.90
37412;DHT22;23278;52.110;6.050;2022-07-29T04:44:16;16.50;89.10
37412;DHT22;23278;52.110;6.050;2022-07-29T04:46:42;16.50;90.10
37412;DHT22;23278;52.110;6.050;2022-07-29T04:49:08;16.50;90.60
37412;DHT22;23278;52.110;6.050;2022-07-29T04:51:34;16.40;91.10
37412;DHT22;23278;52.110;6.050;2022-07-29T04:54:00;16.40;91.30
37412;DHT22;23278;52.110;6.050;2022-07-29T04:56:26;16.40;91.40
37412;DHT22;23278;52.110;6.050;2022-07-29T04:58:52;16.40;91.30
37412;DHT22;23278;52.110;6.050;2022-07-29T05:01:19;16.50;91.20
37412;DHT22;23278;52.110;6.050;2022-07-29T05:03:45;16.50;91.10
37412;DHT22;23278;52.110;6.050;2022-07-29T05:06:11;16.50;91.10
37412;DHT22;23278;52.110;6.050;2022-07-29T05:08:37;16.60;91.10
37412;DHT22;23278;52.110;6.050;2022-07-29T05:11:04;16.60;91.00
37412;DHT22;23278;52.110;6.050;2022-07-29T05:13:30;16.60;91.00
37412;DHT22;23278;52.110;6.050;2022-07-29T05:15:56;16.60;91.00
37412;DHT22;23278;52.110;6.050;2022-07-29T05:18:25;16.60;91.00
37412;DHT22;23278;52.110;6.050;2022-07-29T05:20:50;16.70;91.10
37412;DHT22;23278;52.110;6.050;2022-07-29T05:23:16;16.70;91.10
37412;DHT22;23278;52.110;6.050;2022-07-29T05:25:43;16.70;91.20
37412;DHT22;23278;52.110;6.050;2022-07-29T05:28:09;16.70;91.20
37412;DHT22;23278;52.110;6.050;2022-07-29T05:30:35;16.70;91.30
37412;DHT22;23278;52.110;6.050;2022-07-29T05:33:01;16.60;91.40
37412;DHT22;23278;52.110;6.050;2022-07-29T05:35:27;16.70;91.40
37412;DHT22;23278;52.110;6.050;2022-07-29T05:37:53;16.70;91.40
37412;DHT22;23278;52.110;6.050;2022-07-29T05:40:18;16.70;91.40
37412;DHT22;23278;52.110;6.050;2022-07-29T05:42:44;16.70;91.50
37412;DHT22;23278;52.110;6.050;2022-07-29T05:45:10;16.70;91.40
37412;DHT22;23278;52.110;6.050;2022-07-29T05:47:36;16.70;91.40
37412;DHT22;23278;52.110;6.050;2022-07-29T05:50:03;16.70;91.40
37412;DHT22;23278;52.110;6.050;2022-07-29T05:52:29;16.80;91.40
37412;DHT22;23278;52.110;6.050;2022-07-29T05:54:55;16.80;91.40
37412;DHT22;23278;52.110;6.050;2022-07-29T05:57:23;16.80;91.40
37412;DHT22;23278;52.110;6.050;2022-07-29T05:59:50;16.80;91.50
37412;DHT22;23278;52.110;6.050;2022-07-29T06:02:16;16.80;91.40
37412;DHT22;23278;52.110;6.050;2022-07-29T06:04:43;16.90;91.30
37412;DHT22;23278;52.110;6.050;2022-07-29T06:07:09;16.90;91.30
37412;DHT22;23278;52.110;6.050;2022-07-29T06:09:35;17.00;91.30
37412;DHT22;23278;52.110;6.050;2022-07-29T06:12:01;17.10;91.20
37412;DHT22;23278;52.110;6.050;2022-07-29T06:14:27;17.10;91.20
37412;DHT22;23278;52.110;6.050;2022-07-29T06:16:54;17.20;91.20
37412;DHT22;23278;52.110;6.050;2022-07-29T06:19:20;17.20;91.20
37412;DHT22;23278;52.110;6.050;2022-07-29T06:21:47;17.30;91.20
37412;DHT22;23278;52.110;6.050;2022-07-29T06:24:14;17.30;91.10
37412;DHT22;23278;52.110;6.050;2022-07-29T06:26:42;17.40;91.10
37412;DHT22;23278;52.110;6.050;2022-07-29T06:29:08;17.50;91.00
37412;DHT22;23278;52.110;6.050;2022-07-29T06:31:36;17.60;90.90
37412;DHT22;23278;52.110;6.050;2022-07-29T06:34:02;17.60;91.00
37412;DHT22;23278;52.110;6.050;2022-07-29T06:36:28;17.70;91.00
37412;DHT22;23278;52.110;6.050;2022-07-29T06:38:54;17.80;91.00
37412;DHT22;23278;52.110;6.050;2022-07-29T06:41:20;17.80;91.00
37412;DHT22;23278;52.110;6.050;2022-07-29T06:43:46;17.90;90.80
37412;DHT22;23278;52.110;6.050;2022-07-29T06:46:14;18.00;90.50
37412;DHT22;23278;52.110;6.050;2022-07-29T06:48:41;18.00;90.40
37412;DHT22;23278;52.110;6.050;2022-07-29T06:51:08;18.10;90.10
37412;DHT22;23278;52.110;6.050;2022-07-29T06:53:35;18.10;90.00
37412;DHT22;23278;52.110;6.050;2022-07-29T06:56:05;18.20;89.70
37412;DHT22;23278;52.110;6.050;2022-07-29T06:58:31;18.20;89.10
37412;DHT22;23278;52.110;6.050;2022-07-29T07:00:58;18.30;88.70
37412;DHT22;23278;52.110;6.050;2022-07-29T07:03:24;18.30;88.60
37412;DHT22;23278;52.110;6.050;2022-07-29T07:05:52;18.40;88.10
37412;DHT22;23278;52.110;6.050;2022-07-29T07:08:18;18.40;87.70
37412;DHT22;23278;52.110;6.050;2022-07-29T07:10:45;18.50;87.20
37412;DHT22;23278;52.110;6.050;2022-07-29T07:13:11;18.60;86.60
37412;DHT22;23278;52.110;6.050;2022-07-29T07:15:38;18.60;86.50
37412;DHT22;23278;52.110;6.050;2022-07-29T07:18:05;18.50;86.40
37412;DHT22;23278;52.110;6.050;2022-07-29T07:20:35;18.50;86.50
37412;DHT22;23278;52.110;6.050;2022-07-29T07:23:01;18.50;86.40
37412;DHT22;23278;52.110;6.050;2022-07-29T07:25:27;18.50;86.10
37412;DHT22;23278;52.110;6.050;2022-07-29T07:27:53;18.60;85.60
37412;DHT22;23278;52.110;6.050;2022-07-29T07:30:19;18.70;85.50
37412;DHT22;23278;52.110;6.050;2022-07-29T07:32:45;18.80;85.00
37412;DHT22;23278;52.110;6.050;2022-07-29T07:35:11;18.90;84.70
37412;DHT22;23278;52.110;6.050;2022-07-29T07:37:38;19.00;84.30
37412;DHT22;23278;52.110;6.050;2022-07-29T07:40:07;19.00;84.00
37412;DHT22;23278;52.110;6.050;2022-07-29T07:42:33;19.00;83.70
37412;DHT22;23278;52.110;6.050;2022-07-29T07:44:59;19.10;83.30
37412;DHT22;23278;52.110;6.050;2022-07-29T07:47:25;19.10;82.90
37412;DHT22;23278;52.110;6.050;2022-07-29T07:49:52;19.20;82.60
37412;DHT22;23278;52.110;6.050;2022-07-29T07:52:20;19.30;82.30
37412;DHT22;23278;52.110;6.050;2022-07-29T07:54:47;19.40;81.70
37412;DHT22;23278;52.110;6.050;2022-07-29T07:57:13;19.40;81.20
37412;DHT22;23278;52.110;6.050;2022-07-29T07:59:40;19.30;81.40
37412;DHT22;23278;52.110;6.050;2022-07-29T08:02:06;19.30;81.40
37412;DHT22;23278;52.110;6.050;2022-07-29T08:04:32;19.40;81.30
37412;DHT22;23278;52.110;6.050;2022-07-29T08:06:59;19.50;80.90
37412;DHT22;23278;52.110;6.050;2022-07-29T08:09:26;19.60;80.60
37412;DHT22;23278;52.110;6.050;2022-07-29T08:11:53;19.70;80.40
37412;DHT22;23278;52.110;6.050;2022-07-29T08:14:19;19.70;80.10
37412;DHT22;23278;52.110;6.050;2022-07-29T08:16:45;19.80;80.00
37412;DHT22;23278;52.110;6.050;2022-07-29T08:19:11;19.80;80.00
37412;DHT22;23278;52.110;6.050;2022-07-29T08:21:37;19.80;80.00
37412;DHT22;23278;52.110;6.050;2022-07-29T08:24:03;19.90;79.90
37412;DHT22;23278;52.110;6.050;2022-07-29T08:26:48;20.00;79.70
37412;DHT22;23278;52.110;6.050;2022-07-29T08:29:14;20.10;79.40
37412;DHT22;23278;52.110;6.050;2022-07-29T08:31:40;20.10;79.20
37412;DHT22;23278;52.110;6.050;2022-07-29T08:34:06;20.20;78.80
37412;DHT22;23278;52.110;6.050;2022-07-29T08:36:33;20.40;78.40
37412;DHT22;23278;52.110;6.050;2022-07-29T08:39:00;20.60;78.00
37412;DHT22;23278;52.110;6.050;2022-07-29T08:41:26;20.90;77.90
37412;DHT22;23278;52.110;6.050;2022-07-29T08:43:52;21.20;76.70
37412;DHT22;23278;52.110;6.050;2022-07-29T08:46:19;21.40;76.20
37412;DHT22;23278;52.110;6.050;2022-07-29T08:48:46;21.50;75.70
37412;DHT22;23278;52.110;6.050;2022-07-29T08:51:14;21.70;74.90
37412;DHT22;23278;52.110;6.050;2022-07-29T08:53:43;21.90;74.10
37412;DHT22;23278;52.110;6.050;2022-07-29T08:56:12;22.10;73.60
37412;DHT22;23278;52.110;6.050;2022-07-29T08:58:39;22.30;72.80
37412;DHT22;23278;52.110;6.050;2022-07-29T09:01:06;22.30;72.60
37412;DHT22;23278;52.110;6.050;2022-07-29T09:03:34;22.40;72.50
37412;DHT22;23278;52.110;6.050;2022-07-29T09:06:02;22.40;72.30
37412;DHT22;23278;52.110;6.050;2022-07-29T09:08:31;22.40;72.20
37412;DHT22;23278;52.110;6.050;2022-07-29T09:10:57;22.30;72.30
37412;DHT22;23278;52.110;6.050;2022-07-29T09:13:24;22.30;72.30
37412;DHT22;23278;52.110;6.050;2022-07-29T09:15:50;22.20;72.30
37412;DHT22;23278;52.110;6.050;2022-07-29T09:18:43;22.20;72.20
37412;DHT22;23278;52.110;6.050;2022-07-29T09:21:15;22.20;72.10
37412;DHT22;23278;52.110;6.050;2022-07-29T09:26:30;22.30;71.60
37412;DHT22;23278;52.110;6.050;2022-07-29T09:28:56;22.30;71.40
37412;DHT22;23278;52.110;6.050;2022-07-29T09:31:34;22.20;71.20
37412;DHT22;23278;52.110;6.050;2022-07-29T09:34:00;22.20;71.10
37412;DHT22;23278;52.110;6.050;2022-07-29T09:36:27;22.10;71.10
37412;DHT22;23278;52.110;6.050;2022-07-29T09:39:00;22.10;71.20
37412;DHT22;23278;52.110;6.050;2022-07-29T09:41:27;22.00;71.40
37412;DHT22;23278;52.110;6.050;2022-07-29T09:43:57;21.90;71.40
37412;DHT22;23278;52.110;6.050;2022-07-29T09:46:25;21.90;71.70
37412;DHT22;23278;52.110;6.050;2022-07-29T09:49:23;21.80;71.80
37412;DHT22;23278;52.110;6.050;2022-07-29T09:52:06;21.80;71.80
37412;DHT22;23278;52.110;6.050;2022-07-29T09:54:32;21.80;71.60
37412;DHT22;23278;52.110;6.050;2022-07-29T09:57:07;21.90;71.50
37412;DHT22;23278;52.110;6.050;2022-07-29T09:59:35;22.00;71.40
37412;DHT22;23278;52.110;6.050;2022-07-29T10:02:01;22.00;71.30
37412;DHT22;23278;52.110;6.050;2022-07-29T10:04:37;22.00;71.50
37412;DHT22;23278;52.110;6.050;2022-07-29T10:07:04;21.90;71.60
37412;DHT22;23278;52.110;6.050;2022-07-29T10:09:31;21.90;71.70
37412;DHT22;23278;52.110;6.050;2022-07-29T10:12:10;21.80;71.80
37412;DHT22;23278;52.110;6.050;2022-07-29T10:14:37;21.80;71.90
37412;DHT22;23278;52.110;6.050;2022-07-29T10:17:05;21.80;72.00
37412;DHT22;23278;52.110;6.050;2022-07-29T10:19:32;21.80;71.90
37412;DHT22;23278;52.110;6.050;2022-07-29T10:22:00;21.80;71.80
37412;DHT22;23278;52.110;6.050;2022-07-29T10:24:27;21.80;71.90
37412;DHT22;23278;52.110;6.050;2022-07-29T10:26:57;21.80;72.00
37412;DHT22;23278;52.110;6.050;2022-07-29T10:29:24;21.80;72.10
37412;DHT22;23278;52.110;6.050;2022-07-29T10:32:11;21.90;71.90
37412;DHT22;23278;52.110;6.050;2022-07-29T10:43:21;23.20;68.70
37412;DHT22;23278;52.110;6.050;2022-07-29T10:45:49;24.10;66.60
37412;DHT22;23278;52.110;6.050;2022-07-29T10:48:15;24.90;64.20
37412;DHT22;23278;52.110;6.050;2022-07-29T10:51:04;25.70;62.60
37412;DHT22;23278;52.110;6.050;2022-07-29T10:53:48;26.20;60.50
37412;DHT22;23278;52.110;6.050;2022-07-29T10:56:28;26.50;58.80
37412;DHT22;23278;52.110;6.050;2022-07-29T11:01:43;29.20;54.30
37412;DHT22;23278;52.110;6.050;2022-07-29T11:04:09;30.30;50.20
37412;DHT22;23278;52.110;6.050;2022-07-29T11:09:26;33.30;45.30
37412;DHT22;23278;52.110;6.050;2022-07-29T11:11:52;34.30;43.00
37412;DHT22;23278;52.110;6.050;2022-07-29T11:14:32;35.20;40.90
37412;DHT22;23278;52.110;6.050;2022-07-29T11:17:05;35.90;40.20
37412;DHT22;23278;52.110;6.050;2022-07-29T11:19:33;36.50;38.40
37412;DHT22;23278;52.110;6.050;2022-07-29T11:21:59;37.20;38.40
37412;DHT22;23278;52.110;6.050;2022-07-29T11:24:29;37.70;37.30
37412;DHT22;23278;52.110;6.050;2022-07-29T11:27:19;38.20;36.60
37412;DHT22;23278;52.110;6.050;2022-07-29T11:29:48;39.10;36.20
37412;DHT22;23278;52.110;6.050;2022-07-29T11:32:16;39.90;35.30
37412;DHT22;23278;52.110;6.050;2022-07-29T11:34:43;40.30;35.30
37412;DHT22;23278;52.110;6.050;2022-07-29T11:47:26;41.80;31.80
37412;DHT22;23278;52.110;6.050;2022-07-29T11:49:54;41.80;32.30
37412;DHT22;23278;52.110;6.050;2022-07-29T11:52:20;42.40;32.10
37412;DHT22;23278;52.110;6.050;2022-07-29T11:54:50;43.40;31.60
37412;DHT22;23278;52.110;6.050;2022-07-29T11:57:17;44.00;31.30
37412;DHT22;23278;52.110;6.050;2022-07-29T11:59:45;44.70;31.10
37412;DHT22;23278;52.110;6.050;2022-07-29T12:02:12;45.00;31.00
37412;DHT22;23278;52.110;6.050;2022-07-29T12:04:57;45.40;30.60
37412;DHT22;23278;52.110;6.050;2022-07-29T12:07:29;45.60;29.80
37412;DHT22;23278;52.110;6.050;2022-07-29T12:09:56;45.80;29.90
37412;DHT22;23278;52.110;6.050;2022-07-29T12:12:22;46.30;29.60
37412;DHT22;23278;52.110;6.050;2022-07-29T12:14:48;46.20;29.60
37412;DHT22;23278;52.110;6.050;2022-07-29T12:17:34;46.20;29.40
37412;DHT22;23278;52.110;6.050;2022-07-29T12:20:04;46.00;29.60
37412;DHT22;23278;52.110;6.050;2022-07-29T12:25:03;45.70;29.40
37412;DHT22;23278;52.110;6.050;2022-07-29T12:27:29;46.20;28.80
37412;DHT22;23278;52.110;6.050;2022-07-29T12:29:57;46.90;28.60
37412;DHT22;23278;52.110;6.050;2022-07-29T12:32:23;47.60;28.10
37412;DHT22;23278;52.110;6.050;2022-07-29T12:34:50;48.30;28.10
37412;DHT22;23278;52.110;6.050;2022-07-29T12:37:16;48.90;28.20
37412;DHT22;23278;52.110;6.050;2022-07-29T12:39:43;49.40;27.80
37412;DHT22;23278;52.110;6.050;2022-07-29T12:42:13;50.00;27.70
37412;DHT22;23278;52.110;6.050;2022-07-29T12:44:49;50.50;27.40
37412;DHT22;23278;52.110;6.050;2022-07-29T12:47:16;51.10;27.30
37412;DHT22;23278;52.110;6.050;2022-07-29T12:49:44;51.70;27.00
37412;DHT22;23278;52.110;6.050;2022-07-29T12:52:31;51.80;27.00
37412;DHT22;23278;52.110;6.050;2022-07-29T12:54:58;51.80;27.30
37412;DHT22;23278;52.110;6.050;2022-07-29T12:57:25;51.90;27.10
37412;DHT22;23278;52.110;6.050;2022-07-29T13:00:02;51.80;27.00
37412;DHT22;23278;52.110;6.050;2022-07-29T13:02:29;52.10;26.80
37412;DHT22;23278;52.110;6.050;2022-07-29T13:04:56;52.00;26.70
37412;DHT22;23278;52.110;6.050;2022-07-29T13:07:28;52.00;26.90
37412;DHT22;23278;52.110;6.050;2022-07-29T13:10:13;52.10;26.80
37412;DHT22;23278;52.110;6.050;2022-07-29T13:13:09;51.90;26.60
37412;DHT22;23278;52.110;6.050;2022-07-29T13:15:38;51.10;26.80
37412;DHT22;23278;52.110;6.050;2022-07-29T13:18:25;51.30;26.80
37412;DHT22;23278;52.110;6.050;2022-07-29T13:20:52;51.50;26.60
37412;DHT22;23278;52.110;6.050;2022-07-29T13:23:18;51.80;26.60
37412;DHT22;23278;52.110;6.050;2022-07-29T13:25:43;52.10;26.70
37412;DHT22;23278;52.110;6.050;2022-07-29T13:28:09;52.30;26.70
37412;DHT22;23278;52.110;6.050;2022-07-29T13:30:39;52.50;26.60
37412;DHT22;23278;52.110;6.050;2022-07-29T13:33:05;52.80;26.40
37412;DHT22;23278;52.110;6.050;2022-07-29T13:35:30;52.80;26.50
37412;DHT22;23278;52.110;6.050;2022-07-29T13:37:57;52.70;26.30
37412;DHT22;23278;52.110;6.050;2022-07-29T13:40:23;52.90;26.40
37412;DHT22;23278;52.110;6.050;2022-07-29T13:42:49;52.90;26.30
37412;DHT22;23278;52.110;6.050;2022-07-29T13:45:15;52.90;26.50
37412;DHT22;23278;52.110;6.050;2022-07-29T13:47:41;52.80;26.40
37412;DHT22;23278;52.110;6.050;2022-07-29T13:50:08;52.40;26.50
37412;DHT22;23278;52.110;6.050;2022-07-29T13:52:36;51.40;26.60
37412;DHT22;23278;52.110;6.050;2022-07-29T13:55:03;50.90;26.70
37412;DHT22;23278;52.110;6.050;2022-07-29T13:57:29;51.00;26.50
37412;DHT22;23278;52.110;6.050;2022-07-29T13:59:56;51.50;26.50
37412;DHT22;23278;52.110;6.050;2022-07-29T14:02:22;52.10;26.30
37412;DHT22;23278;52.110;6.050;2022-07-29T14:04:48;52.50;26.40
37412;DHT22;23278;52.110;6.050;2022-07-29T14:07:14;52.70;26.20
37412;DHT22;23278;52.110;6.050;2022-07-29T14:09:40;52.60;26.50
37412;DHT22;23278;52.110;6.050;2022-07-29T14:12:06;52.80;26.10
37412;DHT22;23278;52.110;6.050;2022-07-29T14:14:32;53.00;26.10
37412;DHT22;23278;52.110;6.050;2022-07-29T14:16:58;53.20;26.40
37412;DHT22;23278;52.110;6.050;2022-07-29T14:19:26;53.50;26.30
37412;DHT22;23278;52.110;6.050;2022-07-29T14:21:51;53.40;26.10
37412;DHT22;23278;52.110;6.050;2022-07-29T14:24:17;53.40;25.90
37412;DHT22;23278;52.110;6.050;2022-07-29T14:26:43;53.50;25.90
37412;DHT22;23278;52.110;6.050;2022-07-29T14:29:09;53.60;26.00
37412;DHT22;23278;52.110;6.050;2022-07-29T14:31:35;53.60;26.20
37412;DHT22;23278;52.110;6.050;2022-07-29T14:34:01;53.60;26.10
37412;DHT22;23278;52.110;6.050;2022-07-29T14:36:27;53.50;26.10
37412;DHT22;23278;52.110;6.050;2022-07-29T14:38:53;53.30;26.00
37412;DHT22;23278;52.110;6.050;2022-07-29T14:41:19;53.10;26.20
37412;DHT22;23278;52.110;6.050;2022-07-29T14:43:47;52.70;26.30
37412;DHT22;23278;52.110;6.050;2022-07-29T14:46:13;52.70;26.10
37412;DHT22;23278;52.110;6.050;2022-07-29T14:48:39;52.90;26.10
37412;DHT22;23278;52.110;6.050;2022-07-29T14:51:05;53.00;26.20
37412;DHT22;23278;52.110;6.050;2022-07-29T14:53:31;53.10;26.20
37412;DHT22;23278;52.110;6.050;2022-07-29T14:55:57;53.10;26.00
37412;DHT22;23278;52.110;6.050;2022-07-29T14:58:23;53.20;26.10
37412;DHT22;23278;52.110;6.050;2022-07-29T15:00:49;53.20;25.80
37412;DHT22;23278;52.110;6.050;2022-07-29T15:03:15;53.10;25.80
37412;DHT22;23278;52.110;6.050;2022-07-29T15:05:41;53.10;26.00
37412;DHT22;23278;52.110;6.050;2022-07-29T15:08:07;52.70;25.90
37412;DHT22;23278;52.110;6.050;2022-07-29T15:10:34;52.40;25.80
37412;DHT22;23278;52.110;6.050;2022-07-29T15:13:00;52.00;25.80
37412;DHT22;23278;52.110;6.050;2022-07-29T15:15:26;51.90;25.80
37412;DHT22;23278;52.110;6.050;2022-07-29T15:17:52;52.00;25.70
37412;DHT22;23278;52.110;6.050;2022-07-29T15:20:18;52.00;25.70
37412;DHT22;23278;52.110;6.050;2022-07-29T15:22:43;52.00;25.80
37412;DHT22;23278;52.110;6.050;2022-07-29T15:25:10;51.90;25.70
37412;DHT22;23278;52.110;6.050;2022-07-29T15:27:35;51.20;26.00
37412;DHT22;23278;52.110;6.050;2022-07-29T15:30:02;50.80;26.10
37412;DHT22;23278;52.110;6.050;2022-07-29T15:32:28;50.90;25.90
37412;DHT22;23278;52.110;6.050;2022-07-29T15:34:54;51.30;25.90
37412;DHT22;23278;52.110;6.050;2022-07-29T15:37:19;51.40;25.90
37412;DHT22;23278;52.110;6.050;2022-07-29T15:39:45;50.70;26.00
37412;DHT22;23278;52.110;6.050;2022-07-29T15:42:11;49.40;26.20
37412;DHT22;23278;52.110;6.050;2022-07-29T15:44:37;49.00;26.30
37412;DHT22;23278;52.110;6.050;2022-07-29T15:47:03;48.90;26.30
37412;DHT22;23278;52.110;6.050;2022-07-29T15:49:33;49.10;26.20
37412;DHT22;23278;52.110;6.050;2022-07-29T15:52:00;49.10;26.20
37412;DHT22;23278;52.110;6.050;2022-07-29T15:54:27;49.40;26.10
37412;DHT22;23278;52.110;6.050;2022-07-29T15:56:53;49.50;26.00
37412;DHT22;23278;52.110;6.050;2022-07-29T15:59:20;49.40;26.00
37412;DHT22;23278;52.110;6.050;2022-07-29T16:01:46;49.30;26.20
37412;DHT22;23278;52.110;6.050;2022-07-29T16:04:12;49.40;26.30
37412;DHT22;23278;52.110;6.050;2022-07-29T16:06:38;49.00;26.20
37412;DHT22;23278;52.110;6.050;2022-07-29T16:09:04;48.80;26.40
37412;DHT22;23278;52.110;6.050;2022-07-29T16:11:30;48.70;26.40
37412;DHT22;23278;52.110;6.050;2022-07-29T16:13:56;48.40;26.50
37412;DHT22;23278;52.110;6.050;2022-07-29T16:16:22;47.30;26.80
37412;DHT22;23278;52.110;6.050;2022-07-29T16:18:49;46.80;26.80